createdAt,value
2017-10-17T00:00:50.476Z,101073.44
2017-10-17T00:03:16.786Z,101069.28
2017-10-17T00:05:43.061Z,101067.94
2017-10-17T00:08:09.339Z,101069.01
2017-10-17T00:10:35.645Z,101063.70
2017-10-17T00:13:01.926Z,101061.95
2017-10-17T00:15:28.195Z,101062.63
2017-10-17T00:17:54.478Z,101063.31
2017-10-17T00:20:20.735Z,101058.12
2017-10-17T00:22:46.999Z,101054.28
2017-10-17T00:25:13.281Z,101056.12
2017-10-17T00:27:39.568Z,101048.41
2017-10-17T00:30:05.850Z,101049.84
2017-10-17T00:32:32.217Z,101045.02
2017-10-17T00:34:58.485Z,101042.66
2017-10-17T00:37:24.757Z,101047.02
2017-10-17T00:39:51.027Z,101043.90
2017-10-17T00:42:17.284Z,101038.39
2017-10-17T00:44:43.545Z,101042.49
2017-10-17T00:47:09.822Z,101044.38
2017-10-17T00:49:36.105Z,101041.58
2017-10-17T00:52:02.469Z,101032.52
2017-10-17T00:54:28.747Z,101035.85
2017-10-17T00:56:54.999Z,101035.16
2017-10-17T00:59:21.264Z,101035.44
2017-10-17T01:01:47.546Z,101035.70
2017-10-17T01:04:13.799Z,101039.56
2017-10-17T01:06:40.072Z,101034.96
2017-10-17T01:09:06.332Z,101039.06
2017-10-17T01:11:32.690Z,101038.70
2017-10-17T01:13:58.974Z,101035.20
2017-10-17T01:16:25.292Z,101033.95
2017-10-17T01:18:51.545Z,101030.72
2017-10-17T01:21:17.803Z,101039.34
2017-10-17T01:23:44.094Z,101034.03
2017-10-17T01:26:10.359Z,101028.25
2017-10-17T01:28:36.699Z,101037.00
2017-10-17T01:31:02.963Z,101034.27
2017-10-17T01:33:29.223Z,101033.84
2017-10-17T01:35:55.491Z,101030.11
2017-10-17T01:38:21.768Z,101025.09
2017-10-17T01:40:48.056Z,101023.34
2017-10-17T01:43:14.343Z,101025.94
2017-10-17T01:45:40.625Z,101023.70
2017-10-17T01:48:06.903Z,101031.61
2017-10-17T01:50:33.188Z,101026.20
2017-10-17T01:52:59.525Z,101019.23
2017-10-17T01:55:25.802Z,101023.91
2017-10-17T01:57:52.082Z,101022.36
2017-10-17T02:00:18.340Z,101028.03
2017-10-17T02:02:44.610Z,101030.03
2017-10-17T02:05:10.903Z,101036.29
2017-10-17T02:07:37.192Z,101035.61
2017-10-17T02:10:03.472Z,101031.95
2017-10-17T02:12:29.769Z,101037.22
2017-10-17T02:14:56.037Z,101035.12
2017-10-17T02:17:22.384Z,101030.77
2017-10-17T02:19:48.658Z,101026.95
2017-10-17T02:22:14.931Z,101031.84
2017-10-17T02:24:41.208Z,101031.86
2017-10-17T02:27:07.472Z,101032.36
2017-10-17T02:29:33.783Z,101030.93
2017-10-17T02:32:00.069Z,101035.12
2017-10-17T02:34:26.341Z,101031.45
2017-10-17T02:36:52.647Z,101037.30
2017-10-17T02:39:18.906Z,101034.72
2017-10-17T02:41:45.176Z,101034.38
2017-10-17T02:44:11.457Z,101031.62
2017-10-17T02:46:37.743Z,101029.79
2017-10-17T02:49:04.026Z,101028.62
2017-10-17T02:51:30.301Z,101027.44
2017-10-17T02:53:56.583Z,101031.95
2017-10-17T02:56:22.858Z,101027.45
2017-10-17T02:58:49.116Z,101029.02
2017-10-17T03:01:15.475Z,101013.94
2017-10-17T03:03:41.745Z,101015.11
2017-10-17T03:06:07.990Z,101021.19
2017-10-17T03:08:34.265Z,101020.60
2017-10-17T03:11:00.546Z,101021.86
2017-10-17T03:13:26.986Z,101022.12
2017-10-17T03:15:53.279Z,101020.11
2017-10-17T03:18:19.561Z,101022.70
2017-10-17T03:20:45.819Z,101017.85
2017-10-17T03:23:12.089Z,101024.70
2017-10-17T03:25:38.371Z,101024.84
2017-10-17T03:28:04.752Z,101023.94
2017-10-17T03:30:31.050Z,101020.94
2017-10-17T03:32:57.325Z,101023.83
2017-10-17T03:35:23.605Z,101020.75
2017-10-17T03:37:49.912Z,101021.59
2017-10-17T03:40:16.182Z,101024.89
2017-10-17T03:42:42.459Z,101021.62
2017-10-17T03:45:08.782Z,101019.95
2017-10-17T03:47:35.213Z,101019.98
2017-10-17T03:50:01.468Z,101019.56
2017-10-17T03:52:27.733Z,101019.42
2017-10-17T03:54:54.007Z,101020.05
2017-10-17T03:57:20.335Z,101019.22
2017-10-17T03:59:46.612Z,101016.71
2017-10-17T04:02:12.868Z,101021.59
2017-10-17T04:04:39.170Z,101020.34
2017-10-17T04:07:05.444Z,101022.64
2017-10-17T04:09:31.708Z,101016.64
2017-10-17T04:11:57.987Z,101015.66
2017-10-17T04:14:24.295Z,101016.71
2017-10-17T04:16:50.565Z,101016.48
2017-10-17T04:19:16.835Z,101012.75
2017-10-17T04:21:43.090Z,101008.27
2017-10-17T04:24:09.379Z,101008.35
2017-10-17T04:26:35.682Z,101012.34
2017-10-17T04:29:01.958Z,101008.50
2017-10-17T04:31:28.225Z,101010.58
2017-10-17T04:33:54.515Z,101013.50
2017-10-17T04:36:20.785Z,101027.36
2017-10-17T04:38:47.085Z,101023.84
2017-10-17T04:41:13.357Z,101022.09
2017-10-17T04:43:39.629Z,101017.78
2017-10-17T04:46:05.895Z,101017.69
2017-10-17T04:48:32.222Z,101020.09
2017-10-17T04:50:58.484Z,101017.02
2017-10-17T04:53:24.744Z,101020.94
2017-10-17T04:55:50.999Z,101017.17
2017-10-17T04:58:17.320Z,101017.97
2017-10-17T05:00:43.760Z,101009.46
2017-10-17T05:03:10.197Z,101012.53
2017-10-17T05:05:36.717Z,101009.90
2017-10-17T05:08:03.158Z,101008.30
2017-10-17T05:10:29.835Z,101004.60
2017-10-17T05:12:56.289Z,101008.84
2017-10-17T05:15:22.559Z,100998.75
2017-10-17T05:17:48.850Z,101001.51
2017-10-17T05:20:15.116Z,101005.23
2017-10-17T05:22:41.381Z,101009.14
2017-10-17T05:25:07.651Z,100998.55
2017-10-17T05:27:33.926Z,101003.52
2017-10-17T05:30:00.178Z,100993.92
2017-10-17T05:32:26.518Z,100996.05
2017-10-17T05:34:52.798Z,100995.84
2017-10-17T05:37:19.077Z,101000.14
2017-10-17T05:39:45.329Z,101004.14
2017-10-17T05:42:11.584Z,101000.45
2017-10-17T05:44:37.871Z,101004.95
2017-10-17T05:47:04.126Z,101010.05
2017-10-17T05:49:30.386Z,101010.23
2017-10-17T05:51:56.661Z,101008.61
2017-10-17T05:54:22.955Z,101011.72
2017-10-17T05:56:49.231Z,101008.70
2017-10-17T05:59:15.544Z,101014.03
2017-10-17T06:47:30.519Z,100995.16
2017-10-17T06:49:56.814Z,100994.20
2017-10-17T06:52:23.093Z,100998.12
2017-10-17T06:54:49.426Z,100985.91
2017-10-17T06:57:15.704Z,100989.70
2017-10-17T06:59:41.977Z,100985.33
2017-10-17T07:02:08.288Z,100989.70
2017-10-17T07:04:34.573Z,100979.35
2017-10-17T07:07:00.806Z,100981.31
2017-10-17T07:09:27.103Z,100985.31
2017-10-17T07:11:53.365Z,100981.75
2017-10-17T07:14:19.650Z,100981.05
2017-10-17T07:16:45.958Z,100977.08
2017-10-17T07:19:12.220Z,100975.59
2017-10-17T07:21:38.482Z,100973.34
2017-10-17T07:24:04.775Z,100970.93
2017-10-17T07:26:31.041Z,100966.64
2017-10-17T07:28:57.321Z,100965.80
2017-10-17T07:31:23.949Z,100964.47
2017-10-17T07:33:50.592Z,100959.37
2017-10-17T07:36:17.239Z,100962.23
2017-10-17T07:38:43.878Z,100958.72
2017-10-17T07:41:10.495Z,100955.39
2017-10-17T07:43:37.152Z,100957.81
2017-10-17T07:46:03.654Z,100956.28
2017-10-17T07:48:30.173Z,100958.58
2017-10-17T07:50:56.610Z,100950.28
2017-10-17T07:53:23.296Z,100956.30
2017-10-17T07:55:49.941Z,100950.53
2017-10-17T07:58:16.441Z,100943.59
2017-10-17T08:00:42.955Z,100941.84
2017-10-17T08:03:09.401Z,100934.55
2017-10-17T08:05:35.844Z,100940.06
2017-10-17T08:08:02.507Z,100931.71
2017-10-17T08:10:29.029Z,100931.49
2017-10-17T08:12:55.378Z,100930.73
2017-10-17T08:15:22.018Z,100931.50
2017-10-17T08:17:48.280Z,100915.75
2017-10-17T08:20:14.536Z,100924.70
2017-10-17T08:22:40.851Z,100920.11
2017-10-17T08:25:07.142Z,100923.29
2017-10-17T08:27:33.772Z,100920.50
2017-10-17T08:30:00.392Z,100914.75
2017-10-17T08:32:26.682Z,100912.64
2017-10-17T08:34:52.952Z,100911.55
2017-10-17T08:37:19.244Z,100908.72
2017-10-17T08:39:45.490Z,100905.40
2017-10-17T08:42:11.749Z,100905.98
2017-10-17T08:44:38.047Z,100904.66
2017-10-17T08:47:04.287Z,100902.30
2017-10-17T08:49:30.855Z,100898.39
2017-10-17T08:51:57.313Z,100905.66
2017-10-17T08:54:23.988Z,100901.09
2017-10-17T08:56:50.241Z,100900.12
2017-10-17T08:59:16.526Z,100895.30
2017-10-17T09:01:43.016Z,100906.08
2017-10-17T09:04:09.628Z,100900.36
2017-10-17T09:06:36.298Z,100895.82
2017-10-17T09:09:02.935Z,100898.80
2017-10-17T09:11:29.487Z,100898.91
2017-10-17T09:13:55.973Z,100894.50
2017-10-17T09:16:22.422Z,100897.66
2017-10-17T09:18:48.858Z,100895.72
2017-10-17T09:21:15.307Z,100888.63
2017-10-17T09:23:41.827Z,100889.80
2017-10-17T09:26:08.343Z,100886.16
2017-10-17T09:28:35.019Z,100883.20
2017-10-17T09:31:01.657Z,100882.28
2017-10-17T09:33:28.300Z,100877.70
2017-10-17T09:35:54.933Z,100882.52
2017-10-17T09:38:21.553Z,100875.70
2017-10-17T09:40:48.208Z,100873.87
2017-10-17T09:43:14.837Z,100875.91
2017-10-17T09:45:41.355Z,100874.27
2017-10-17T09:48:07.873Z,100865.23
2017-10-17T09:50:34.320Z,100860.31
2017-10-17T09:53:00.788Z,100858.91
2017-10-17T09:55:27.420Z,100851.95
2017-10-17T09:57:54.041Z,100858.92
2017-10-17T10:00:20.560Z,100851.47
2017-10-17T10:02:47.004Z,100843.35
2017-10-17T10:05:13.445Z,100845.48
2017-10-17T10:07:39.963Z,100840.38
2017-10-17T10:10:06.401Z,100833.51
2017-10-17T10:12:33.272Z,100826.99
2017-10-17T10:14:59.734Z,100833.14
2017-10-17T10:17:26.347Z,100828.08
2017-10-17T10:19:52.969Z,100829.03
2017-10-17T10:22:19.628Z,100822.97
2017-10-17T10:24:46.236Z,100813.63
2017-10-17T10:27:12.653Z,100809.93
2017-10-17T10:29:39.097Z,100806.47
2017-10-17T10:32:05.763Z,100801.20
2017-10-17T10:34:32.257Z,100800.30
2017-10-17T10:36:58.695Z,100797.27
2017-10-17T10:39:25.142Z,100790.69
2017-10-17T10:41:51.701Z,100794.05
2017-10-17T10:44:18.194Z,100792.02
2017-10-17T10:46:44.644Z,100785.98
2017-10-17T10:49:11.060Z,100792.63
2017-10-17T10:51:37.602Z,100776.97
2017-10-17T10:54:04.075Z,100768.47
2017-10-17T10:56:30.561Z,100776.23
2017-10-17T10:58:57.005Z,100771.83
2017-10-17T11:01:23.449Z,100768.78
2017-10-17T11:03:49.825Z,100770.44
2017-10-17T11:06:16.309Z,100764.67
2017-10-17T11:08:42.747Z,100760.75
2017-10-17T11:11:09.268Z,100757.95
2017-10-17T11:13:35.707Z,100753.88
2017-10-17T11:16:02.181Z,100746.96
2017-10-17T11:18:28.820Z,100743.98
2017-10-17T11:20:55.474Z,100738.27
2017-10-17T11:23:21.896Z,100738.70
2017-10-17T11:25:48.531Z,100734.09
2017-10-17T11:28:15.167Z,100726.60
2017-10-17T11:30:41.782Z,100737.90
2017-10-17T11:33:08.442Z,100726.83
2017-10-17T11:35:34.905Z,100726.52
2017-10-17T11:38:01.721Z,100721.18
2017-10-17T11:40:28.360Z,100719.48
2017-10-17T11:42:54.997Z,100716.93
2017-10-17T11:45:21.635Z,100714.42
2017-10-17T11:47:48.256Z,100709.34
2017-10-17T11:50:14.918Z,100707.91
2017-10-17T11:52:41.540Z,100712.11
2017-10-17T11:55:08.057Z,100705.64
2017-10-17T11:57:34.576Z,100702.81
2017-10-17T12:00:00.919Z,100696.34
2017-10-17T12:02:27.362Z,100693.97
2017-10-17T12:04:53.773Z,100696.99
2017-10-17T12:07:20.353Z,100693.38
2017-10-17T12:09:46.988Z,100685.02
2017-10-17T12:12:13.631Z,100695.08
2017-10-17T12:14:40.123Z,100686.17
2017-10-17T12:17:06.567Z,100679.85
2017-10-17T12:19:33.137Z,100678.90
2017-10-17T12:21:59.750Z,100683.03
2017-10-17T12:24:26.411Z,100684.32
2017-10-17T12:26:53.036Z,100679.73
2017-10-17T12:29:19.686Z,100682.83
2017-10-17T12:31:46.315Z,100669.84
2017-10-17T12:34:12.965Z,100666.40
2017-10-17T12:36:39.456Z,100664.26
2017-10-17T12:39:05.899Z,100661.19
2017-10-17T12:41:32.469Z,100659.52
2017-10-17T12:43:59.004Z,100659.83
2017-10-17T12:46:25.495Z,100658.48
2017-10-17T12:48:52.093Z,100655.41
2017-10-17T12:51:18.557Z,100654.84
2017-10-17T12:53:45.251Z,100658.67
2017-10-17T12:56:11.747Z,100654.09
2017-10-17T12:58:38.182Z,100650.89
2017-10-17T13:01:04.708Z,100652.58
2017-10-17T13:03:31.149Z,100649.62
2017-10-17T13:05:57.616Z,100655.05
2017-10-17T13:08:24.108Z,100646.26
2017-10-17T13:10:50.695Z,100644.73
2017-10-17T13:13:17.319Z,100640.64
2017-10-17T13:15:43.972Z,100643.27
2017-10-17T13:18:10.604Z,100646.59
2017-10-17T13:20:37.246Z,100639.59
2017-10-17T13:23:04.089Z,100643.38
2017-10-17T13:25:30.681Z,100640.70
2017-10-17T13:27:57.125Z,100648.38
2017-10-17T13:30:23.794Z,100644.70
2017-10-17T13:32:50.444Z,100643.92
2017-10-17T13:35:17.048Z,100645.58
2017-10-17T13:37:43.710Z,100645.51
2017-10-17T13:40:10.353Z,100649.19
2017-10-17T13:42:36.979Z,100649.20
2017-10-17T13:45:03.631Z,100648.88
2017-10-17T13:47:30.266Z,100641.42
2017-10-17T13:49:56.781Z,100650.24
2017-10-17T13:52:23.297Z,100644.41
2017-10-17T13:54:49.766Z,100641.67
2017-10-17T13:57:16.405Z,100647.05
2017-10-17T13:59:43.020Z,100641.98
2017-10-17T14:02:09.470Z,100650.02
2017-10-17T14:04:36.120Z,100646.55
2017-10-17T14:07:02.752Z,100643.64
2017-10-17T14:09:29.370Z,100643.18
2017-10-17T14:11:55.786Z,100643.72
2017-10-17T14:14:22.466Z,100639.11
2017-10-17T14:16:49.106Z,100639.33
2017-10-17T14:19:15.608Z,100620.61
2017-10-17T14:21:42.027Z,100641.87
2017-10-17T14:24:08.471Z,100638.94
2017-10-17T14:26:35.012Z,100641.91
2017-10-17T14:29:01.554Z,100637.55
2017-10-17T14:31:27.975Z,100634.76
2017-10-17T14:33:54.412Z,100634.46
2017-10-17T14:36:20.830Z,100630.52
2017-10-17T14:38:47.298Z,100629.86
2017-10-17T14:41:13.814Z,100634.88
2017-10-17T14:43:40.488Z,100632.66
2017-10-17T14:46:07.129Z,100629.26
2017-10-17T14:48:33.741Z,100629.16
2017-10-17T14:51:00.402Z,100628.48
2017-10-17T14:53:27.029Z,100628.53
2017-10-17T14:55:53.672Z,100632.34
2017-10-17T14:58:20.311Z,100628.56
2017-10-17T15:00:46.951Z,100631.05
2017-10-17T15:03:13.571Z,100628.73
2017-10-17T15:05:39.986Z,100623.97
2017-10-17T15:08:06.407Z,100625.12
2017-10-17T15:10:32.856Z,100626.57
2017-10-17T15:12:59.290Z,100639.58
2017-10-17T15:15:25.709Z,100638.70
2017-10-17T15:17:52.398Z,100637.67
2017-10-17T15:20:18.891Z,100626.92
2017-10-17T15:22:45.337Z,100635.19
2017-10-17T15:25:11.923Z,100645.80
2017-10-17T15:27:38.396Z,100642.27
2017-10-17T15:30:04.832Z,100647.93
2017-10-17T15:32:31.217Z,100647.97
2017-10-17T15:34:57.836Z,100653.14
2017-10-17T15:37:24.480Z,100650.14
2017-10-17T15:39:51.113Z,100655.37
2017-10-17T15:42:17.623Z,100654.95
2017-10-17T15:44:44.191Z,100654.97
2017-10-17T15:47:10.807Z,100657.87
2017-10-17T15:49:37.468Z,100657.63
2017-10-17T15:52:04.104Z,100665.53
2017-10-17T15:54:30.633Z,100669.70
2017-10-17T15:56:57.021Z,100671.44
2017-10-17T15:59:23.401Z,100667.83
2017-10-17T16:01:50.043Z,100665.73
2017-10-17T16:04:16.679Z,100681.80
2017-10-17T16:06:43.165Z,100679.09
2017-10-17T16:09:09.750Z,100677.08
2017-10-17T16:14:07.645Z,100682.75
2017-10-17T16:16:34.167Z,100685.59
2017-10-17T16:19:00.815Z,100688.43
2017-10-17T16:21:27.453Z,100692.73
2017-10-17T16:23:53.893Z,100691.05
2017-10-17T16:26:20.404Z,100675.91
2017-10-17T16:28:46.817Z,100696.88
2017-10-17T16:31:13.385Z,100696.45
2017-10-17T16:33:40.003Z,100702.50
2017-10-17T16:36:06.268Z,100699.93
2017-10-17T16:38:32.528Z,100698.37
2017-10-17T16:40:58.795Z,100699.93
2017-10-17T16:43:25.078Z,100699.20
2017-10-17T16:45:51.353Z,100701.51
2017-10-17T16:48:17.613Z,100701.36
2017-10-17T16:50:43.865Z,100704.01
2017-10-17T16:53:10.136Z,100693.28
2017-10-17T17:00:39.645Z,100696.79
2017-10-17T17:03:05.901Z,100695.08
2017-10-17T17:05:32.200Z,100696.34
2017-10-17T17:07:58.512Z,100704.13
2017-10-17T17:10:24.846Z,100703.08
2017-10-17T17:12:51.129Z,100698.09
2017-10-17T17:15:17.394Z,100702.44
2017-10-17T17:17:43.636Z,100708.55
2017-10-17T17:20:09.938Z,100709.28
2017-10-17T17:22:36.217Z,100714.93
2017-10-17T17:25:02.499Z,100706.44
2017-10-17T17:27:28.771Z,100708.37
2017-10-17T17:29:55.014Z,100701.79
2017-10-17T17:32:21.298Z,100698.80
2017-10-17T17:34:47.549Z,100703.84
2017-10-17T17:37:13.863Z,100702.96
2017-10-17T17:39:40.233Z,100705.95
2017-10-17T17:42:06.488Z,100707.08
2017-10-17T17:44:32.753Z,100700.48
2017-10-17T17:46:59.003Z,100709.97
2017-10-17T17:49:25.258Z,100706.59
2017-10-17T17:51:51.575Z,100695.85
2017-10-17T17:54:17.832Z,100702.23
2017-10-17T17:56:44.148Z,100705.01
2017-10-17T17:59:11.402Z,100703.80
2017-10-17T18:01:37.690Z,100699.09
2017-10-17T18:04:04.049Z,100696.97
2017-10-17T18:06:30.331Z,100698.88
2017-10-17T18:08:56.671Z,100691.46
2017-10-17T18:11:22.954Z,100699.44
2017-10-17T18:13:49.258Z,100697.74
2017-10-17T18:16:15.521Z,100700.22
2017-10-17T18:18:41.818Z,100690.05
2017-10-17T18:21:08.108Z,100699.80
2017-10-17T18:23:34.376Z,100693.87
2017-10-17T18:26:00.665Z,100697.34
2017-10-17T18:28:27.015Z,100689.53
2017-10-17T18:30:53.285Z,100698.65
2017-10-17T18:33:19.532Z,100695.95
2017-10-17T18:35:45.914Z,100698.22
2017-10-17T18:38:12.154Z,100696.16
2017-10-17T18:40:38.421Z,100692.27
2017-10-17T18:43:04.714Z,100699.61
2017-10-17T18:45:31.014Z,100695.57
2017-10-17T18:47:57.280Z,100691.15
2017-10-17T18:50:23.524Z,100695.38
2017-10-17T18:52:49.797Z,100701.69
2017-10-17T18:55:16.069Z,100692.89
2017-10-17T18:57:42.355Z,100697.67
2017-10-17T19:00:08.647Z,100695.08
2017-10-17T19:02:34.922Z,100701.61
2017-10-17T19:05:01.160Z,100700.98
2017-10-17T19:07:27.430Z,100696.22
2017-10-17T19:09:53.737Z,100690.84
2017-10-17T19:12:20.041Z,100694.98
2017-10-17T19:14:46.351Z,100704.40
2017-10-17T19:17:12.614Z,100704.80
2017-10-17T19:19:38.898Z,100706.16
2017-10-17T19:22:05.163Z,100706.68
2017-10-17T19:24:31.439Z,100708.09
2017-10-17T19:26:57.716Z,100706.44
2017-10-17T19:29:23.974Z,100703.61
2017-10-17T19:31:50.266Z,100705.47
2017-10-17T19:34:16.518Z,100705.65
2017-10-17T19:36:42.774Z,100703.38
2017-10-17T19:39:09.044Z,100710.19
2017-10-17T19:41:35.292Z,100700.84
2017-10-17T19:44:01.542Z,100704.81
2017-10-17T19:46:27.983Z,100704.78
2017-10-17T19:48:54.246Z,100708.61
2017-10-17T19:51:20.513Z,100704.45
2017-10-17T19:53:46.788Z,100703.48
2017-10-17T19:56:13.098Z,100707.77
2017-10-17T19:58:39.342Z,100708.38
2017-10-17T20:01:05.643Z,100708.80
2017-10-17T20:03:31.925Z,100711.48
2017-10-17T20:05:58.196Z,100707.94
2017-10-17T20:08:24.457Z,100707.42
2017-10-17T20:10:50.730Z,100707.83
2017-10-17T20:13:17.112Z,100709.52
2017-10-17T20:15:43.365Z,100710.39
2017-10-17T20:18:09.754Z,100710.39
2017-10-17T20:20:36.008Z,100707.27
2017-10-17T20:23:02.285Z,100704.55
2017-10-17T20:25:28.546Z,100705.30
2017-10-17T20:27:54.846Z,100709.47
2017-10-17T20:30:21.320Z,100701.83
2017-10-17T20:32:47.594Z,100713.75
2017-10-17T20:35:13.984Z,100714.58
2017-10-17T20:37:40.236Z,100713.86
2017-10-17T20:40:06.499Z,100715.03
2017-10-17T20:42:32.754Z,100715.05
2017-10-17T20:44:59.745Z,100689.78
2017-10-17T20:47:26.010Z,100712.11
2017-10-17T20:49:52.303Z,100710.73
2017-10-17T20:52:18.594Z,100706.55
2017-10-17T20:54:45.067Z,100697.11
2017-10-17T20:57:11.324Z,100704.48
2017-10-17T20:59:37.596Z,100704.75
2017-10-17T21:02:03.908Z,100703.85
2017-10-17T21:04:30.159Z,100705.19
2017-10-17T21:06:56.422Z,100708.02
2017-10-17T21:09:22.730Z,100710.48
2017-10-17T21:11:48.998Z,100714.08
2017-10-17T21:14:15.316Z,100714.95
2017-10-17T21:16:41.570Z,100719.02
2017-10-17T21:19:07.826Z,100716.48
2017-10-17T21:21:34.157Z,100715.00
2017-10-17T21:24:00.415Z,100715.68
2017-10-17T21:26:26.680Z,100712.69
2017-10-17T21:28:52.945Z,100713.45
2017-10-17T21:31:19.218Z,100720.95
2017-10-17T21:33:45.492Z,100714.45
2017-10-17T21:36:11.802Z,100717.38
2017-10-17T21:38:38.048Z,100717.20
2017-10-17T21:41:04.343Z,100720.05
2017-10-17T21:43:30.615Z,100711.84
2017-10-17T21:45:56.883Z,100712.44
2017-10-17T21:48:23.140Z,100711.33
2017-10-17T21:50:49.391Z,100710.22
2017-10-17T21:53:15.644Z,100710.55
2017-10-17T21:55:41.946Z,100705.64
2017-10-17T21:58:08.213Z,100704.94
2017-10-17T22:00:34.481Z,100705.00
2017-10-17T22:03:00.773Z,100705.72
2017-10-17T22:05:27.032Z,100705.22
2017-10-17T22:07:53.331Z,100707.64
2017-10-17T22:10:20.144Z,100713.25
2017-10-17T22:12:46.422Z,100713.08
2017-10-17T22:15:12.686Z,100717.71
2017-10-17T22:17:38.977Z,100714.19
2017-10-17T22:20:05.388Z,100718.56
2017-10-17T22:22:31.653Z,100713.81
2017-10-17T22:24:57.915Z,100708.11
2017-10-17T22:27:24.270Z,100710.04
2017-10-17T22:29:50.533Z,100709.61
2017-10-17T22:32:16.793Z,100711.27
2017-10-17T22:34:43.102Z,100713.25
2017-10-17T22:37:09.372Z,100709.84
2017-10-17T22:39:35.655Z,100708.52
2017-10-17T22:42:01.932Z,100702.59
2017-10-17T22:44:28.215Z,100710.53
2017-10-17T22:46:54.509Z,100703.17
2017-10-17T22:49:20.780Z,100698.58
2017-10-17T22:51:47.057Z,100699.70
2017-10-17T22:54:13.359Z,100699.42
2017-10-17T22:56:39.751Z,100697.64
2017-10-17T22:59:06.051Z,100697.83
2017-10-17T23:01:32.298Z,100685.47
2017-10-17T23:03:58.553Z,100696.57
2017-10-17T23:06:24.849Z,100690.11
2017-10-17T23:08:51.207Z,100696.52
2017-10-17T23:11:17.477Z,100691.97
2017-10-17T23:13:43.789Z,100692.94
2017-10-17T23:16:10.079Z,100689.72
2017-10-17T23:18:36.366Z,100691.41
2017-10-17T23:21:02.664Z,100686.34
2017-10-17T23:23:28.949Z,100683.80
2017-10-17T23:25:55.229Z,100687.78
2017-10-17T23:28:21.519Z,100681.95
2017-10-17T23:30:47.807Z,100676.16
2017-10-17T23:33:14.124Z,100681.23
2017-10-17T23:35:40.398Z,100681.00
2017-10-17T23:38:06.693Z,100675.55
2017-10-17T23:40:33.013Z,100676.99
2017-10-17T23:42:59.303Z,100678.39
2017-10-17T23:45:25.635Z,100679.06
2017-10-17T23:47:51.975Z,100677.02
2017-10-17T23:50:18.266Z,100666.65
2017-10-17T23:52:44.564Z,100671.27
2017-10-17T23:55:10.881Z,100668.75
2017-10-17T23:57:37.156Z,100675.52
